Time;durP1;ratioP1;P1;durP2;ratioP2;P2;SDS_P1;SDS_P2;PMS_P1;PMS_P2;Temp;Humidity;BMP_temperature;BMP_pressure;BME280_temperature;BME280_humidity;BME280_pressure;Samples;Min_cycle;Max_cycle;Signal;HPM_P1;HPM_P2
2023/05/24 00:03:25;;;;;;;1.85;0.30;;;;;;;13.50;62.79;97940.94;10482895;28;20072;-71
2023/05/24 00:08:45;;;;;;;0.70;0.20;;;;;;;13.50;62.46;97941.69;10468677;28;20123;-71
2023/05/24 00:14:06;;;;;;;1.33;0.40;;;;;;;13.53;62.62;97934.13;10468665;28;20140;-70
2023/05/24 00:19:28;;;;;;;0.85;0.38;;;;;;;13.52;62.35;97938.28;10482560;28;20505;-71
2023/05/24 00:24:48;;;;;;;0.38;0.25;;;;;;;13.50;62.56;97944.47;10485463;28;20064;-71
2023/05/24 00:30:09;;;;;;;1.38;0.17;;;;;;;13.45;62.49;97935.13;10476422;28;20474;-71
2023/05/24 00:35:30;;;;;;;0.50;0.20;;;;;;;13.37;62.69;97934.63;10476407;28;20540;-70
2023/05/24 00:40:51;;;;;;;0.75;0.20;;;;;;;13.38;62.87;97941.69;10462125;28;20123;-71
2023/05/24 00:46:16;;;;;;;0.65;0.30;;;;;;;13.33;62.58;97939.28;10462025;28;20112;-71
2023/05/24 00:51:37;;;;;;;2.50;0.38;;;;;;;13.28;62.68;97934.75;10489513;28;20191;-71
2023/05/24 00:56:58;;;;;;;2.35;0.43;;;;;;;13.20;62.83;97943.41;10475554;28;20121;-71
2023/05/24 01:02:19;;;;;;;1.60;0.43;;;;;;;13.13;62.99;97939.50;10475018;28;20073;-71
2023/05/24 01:08:01;;;;;;;2.47;0.60;;;;;;;13.03;63.07;97943.75;10461665;28;20044;-71
2023/05/24 01:13:47;;;;;;;3.15;0.70;;;;;;;13.05;63.17;97950.22;10488737;28;20124;-70
2023/05/24 01:19:14;;;;;;;4.68;1.00;;;;;;;12.97;62.59;97943.38;10488639;28;20155;-71
2023/05/24 01:25:11;;;;;;;3.97;1.40;;;;;;;12.93;62.72;97951.50;10475055;28;20075;-71
2023/05/24 01:30:32;;;;;;;3.05;1.13;;;;;;;12.94;63.02;97955.81;10476705;28;20041;-71
2023/05/24 01:35:53;;;;;;;2.65;1.10;;;;;;;12.84;62.52;97951.03;10473185;28;20123;-70
2023/05/24 01:41:37;;;;;;;4.50;1.30;;;;;;;12.84;62.44;97953.09;10459692;28;20124;-70
2023/05/24 01:47:09;;;;;;;3.50;1.13;;;;;;;12.78;62.79;97953.44;10473591;28;20117;-71
2023/05/24 01:52:30;;;;;;;5.50;1.30;;;;;;;12.71;62.50;97951.59;10487491;28;20383;-70
2023/05/24 01:57:51;;;;;;;4.05;1.20;;;;;;;12.66;62.60;97954.78;10473165;28;20158;-70
2023/05/24 02:03:13;;;;;;;6.28;1.30;;;;;;;12.66;62.19;97960.38;10458994;28;20080;-71
2023/05/24 02:08:33;;;;;;;4.15;1.65;;;;;;;12.56;62.40;97952.78;10472685;28;20534;-71
2023/05/24 02:13:54;;;;;;;5.43;1.55;;;;;;;12.45;62.52;97952.75;10501438;28;20044;-70
2023/05/24 02:19:16;;;;;;;4.05;1.48;;;;;;;12.48;62.27;97951.56;10472051;28;20116;-71
2023/05/24 02:24:39;;;;;;;5.03;1.70;;;;;;;12.42;62.31;97951.16;10485953;28;20128;-71
2023/05/24 02:29:59;;;;;;;4.47;1.60;;;;;;;12.40;62.50;97951.03;10485532;28;20045;-71
2023/05/24 02:35:20;;;;;;;6.00;1.95;;;;;;;12.41;62.49;97947.63;10457704;28;20068;-71
2023/05/24 02:40:40;;;;;;;4.90;1.90;;;;;;;12.42;62.46;97948.34;10471408;28;20047;-71
2023/05/24 02:46:02;;;;;;;5.80;2.05;;;;;;;12.41;62.45;97955.28;10484690;28;20555;-70
2023/05/24 02:51:23;;;;;;;5.82;2.45;;;;;;;12.32;62.03;97957.56;10457389;28;20047;-71
2023/05/24 02:56:44;;;;;;;9.95;2.78;;;;;;;12.27;62.39;97953.06;10470650;28;20044;-71
2023/05/24 03:02:08;;;;;;;11.00;2.80;;;;;;;12.28;62.30;97954.53;10471107;28;20076;-71
2023/05/24 03:07:28;;;;;;;9.43;2.88;;;;;;;12.27;62.30;97958.66;10484085;28;20036;-71
2023/05/24 03:12:49;;;;;;;9.80;2.92;;;;;;;12.26;62.29;97964.88;10456469;28;20123;-70
2023/05/24 03:18:10;;;;;;;9.48;2.63;;;;;;;12.23;62.31;97960.44;10470061;28;20380;-71
2023/05/24 03:23:32;;;;;;;13.15;3.00;;;;;;;12.17;62.42;97966.41;10469818;28;20094;-71
2023/05/24 03:28:53;;;;;;;7.05;2.20;;;;;;;12.28;62.36;97965.00;10483592;28;20443;-70
2023/05/24 03:34:20;;;;;;;8.07;2.45;;;;;;;12.32;62.33;97991.16;10470169;28;20460;-70
2023/05/24 03:39:40;;;;;;;8.35;2.30;;;;;;;12.33;62.25;97991.88;10483288;28;20122;-71
2023/05/24 03:45:16;;;;;;;10.32;2.70;;;;;;;12.43;62.36;97995.34;10459594;28;20132;-70
2023/05/24 03:50:54;;;;;;;4.80;1.95;;;;;;;12.46;62.40;97996.94;10459617;28;20394;-70
2023/05/24 03:56:15;;;;;;;7.03;2.35;;;;;;;12.48;62.09;98004.75;10482977;28;20150;-71
2023/05/24 04:01:35;;;;;;;12.95;2.60;;;;;;;12.32;62.14;98005.16;10468221;28;20121;-70
2023/05/24 04:06:56;;;;;;;13.02;2.92;;;;;;;12.37;62.30;98000.56;10454654;28;20123;-71
2023/05/24 04:12:17;;;;;;;8.57;2.50;;;;;;;12.23;61.76;98028.34;10482867;28;20068;-71
2023/05/24 04:17:38;;;;;;;12.13;2.53;;;;;;;12.20;61.91;98014.84;10482490;28;20041;-70
2023/05/24 04:22:59;;;;;;;9.23;2.40;;;;;;;12.03;62.18;98027.75;10482446;28;20111;-70
2023/05/24 04:28:21;;;;;;;9.98;1.77;;;;;;;12.05;62.16;98029.94;10468136;28;20146;-70
2023/05/24 04:33:41;;;;;;;8.90;2.20;;;;;;;11.98;61.94;98022.50;10468307;28;20509;-71
2023/05/24 04:39:03;;;;;;;7.95;1.65;;;;;;;12.11;61.87;98021.22;10467947;28;20182;-70
2023/05/24 04:44:24;;;;;;;7.28;2.00;;;;;;;12.14;60.81;98037.53;10467982;28;20040;-71
2023/05/24 04:49:45;;;;;;;13.13;2.50;;;;;;;12.07;61.06;98037.75;10481983;28;20117;-71
2023/05/24 04:55:06;;;;;;;10.38;2.17;;;;;;;12.02;60.92;98036.75;10481735;28;20072;-71
2023/05/24 05:00:27;;;;;;;11.32;1.83;;;;;;;12.10;60.94;98034.50;10496566;28;20048;-71
2023/05/24 05:05:47;;;;;;;9.98;2.00;;;;;;;12.22;60.72;98031.75;10481317;28;20132;-71
2023/05/24 05:11:09;;;;;;;12.25;2.35;;;;;;;12.34;60.34;98035.34;10498447;28;20390;-70
2023/05/24 05:16:30;;;;;;;9.85;1.92;;;;;;;12.46;60.00;98038.94;10488702;28;20044;-71
2023/05/24 05:21:51;;;;;;;9.07;2.03;;;;;;;12.43;59.76;98045.72;10488538;28;20041;-71
2023/05/24 05:27:12;;;;;;;8.00;1.60;;;;;;;12.68;59.71;98036.09;10503465;28;20060;-71
2023/05/24 05:32:33;;;;;;;11.52;2.10;;;;;;;12.71;59.14;98046.81;10487992;28;20068;-70
2023/05/24 05:37:53;;;;;;;12.10;1.90;;;;;;;12.70;58.46;98045.38;10474235;28;20044;-71
2023/05/24 05:43:14;;;;;;;9.40;1.88;;;;;;;12.72;58.25;98059.50;10487529;28;20048;-70
2023/05/24 05:48:35;;;;;;;12.52;2.17;;;;;;;12.84;58.38;98059.56;10502330;28;20036;-71
2023/05/24 05:53:56;;;;;;;6.68;2.03;;;;;;;13.04;57.69;98062.91;10459541;28;20098;-71
2023/05/24 05:59:16;;;;;;;10.68;2.22;;;;;;;13.02;56.87;98063.50;10473110;28;20441;-71
2023/05/24 06:04:37;;;;;;;12.25;2.58;;;;;;;12.87;56.88;98080.75;10472743;28;20151;-71
2023/05/24 06:09:58;;;;;;;8.05;2.15;;;;;;;12.86;56.92;98079.28;10472568;28;20060;-71
2023/05/24 06:15:21;;;;;;;8.95;2.17;;;;;;;12.95;55.89;98088.94;10458691;28;20047;-71
2023/05/24 06:20:43;;;;;;;8.05;2.20;;;;;;;12.93;55.76;98097.19;10485851;28;20140;-71
2023/05/24 06:26:07;;;;;;;11.85;2.30;;;;;;;13.17;56.30;98109.97;10486192;28;20124;-71
2023/05/24 06:31:28;;;;;;;;;;;;;;;13.07;54.79;98098.84;10500942;28;20071;-71
2023/05/24 06:36:50;;;;;;;13.00;2.10;;;;;;;12.84;54.38;98099.50;10471597;28;20354;-71
2023/05/24 06:42:11;;;;;;;7.88;2.03;;;;;;;12.95;54.80;98097.34;10471807;28;20380;-71
2023/05/24 06:47:37;;;;;;;9.55;2.05;;;;;;;13.12;53.76;98108.22;10471717;28;20056;-71
2023/05/24 06:52:58;;;;;;;10.95;2.13;;;;;;;12.88;52.71;98104.63;10470965;28;20119;-71
2023/05/24 06:58:18;;;;;;;7.57;2.05;;;;;;;12.93;52.81;98111.94;10499439;28;20491;-71
2023/05/24 07:03:39;;;;;;;8.20;1.73;;;;;;;13.23;52.75;98116.00;10470342;28;20554;-71
2023/05/24 07:09:03;;;;;;;9.80;2.20;;;;;;;13.23;52.61;98120.88;10484162;28;20123;-70
2023/05/24 07:14:26;;;;;;;13.00;2.22;;;;;;;13.38;52.42;98118.34;10484419;28;20135;-71
2023/05/24 07:19:46;;;;;;;9.25;1.92;;;;;;;13.16;51.61;98128.84;10484360;28;20071;-71
2023/05/24 07:25:08;;;;;;;12.48;2.22;;;;;;;13.26;52.00;98116.84;10483658;28;20089;-71
2023/05/24 07:30:29;;;;;;;9.15;2.08;;;;;;;13.60;51.94;98123.84;10456093;28;20120;-71
2023/05/24 07:35:52;;;;;;;15.35;2.53;;;;;;;13.86;51.12;98136.69;10469575;28;20111;-71
2023/05/24 07:41:13;;;;;;;10.43;2.53;;;;;;;14.47;50.29;98139.63;10469601;28;20178;-71
2023/05/24 07:46:34;;;;;;;13.68;2.45;;;;;;;14.55;49.42;98135.19;10498000;28;20037;-71
2023/05/24 07:51:59;;;;;;;11.80;2.15;;;;;;;14.85;48.73;98130.59;10483102;28;20100;-71
2023/05/24 07:57:19;;;;;;;9.40;2.72;;;;;;;14.81;47.93;98129.66;10469630;28;20064;-71
2023/05/24 08:02:41;;;;;;;9.82;2.63;;;;;;;14.88;47.96;98129.38;10482530;28;20049;-71
2023/05/24 08:08:02;;;;;;;11.73;2.28;;;;;;;14.76;47.47;98127.94;10497855;28;20064;-71
2023/05/24 08:13:23;;;;;;;10.27;2.30;;;;;;;14.97;47.88;98119.34;10497486;28;20518;-71
2023/05/24 08:18:44;;;;;;;10.70;2.20;;;;;;;16.11;46.99;98130.38;10482456;28;20065;-71
2023/05/24 08:24:04;;;;;;;10.57;2.50;;;;;;;16.58;45.87;98125.75;10482228;28;20118;-71
2023/05/24 08:29:29;;;;;;;8.27;1.95;;;;;;;16.90;44.83;98125.22;10497246;28;20533;-71
2023/05/24 08:34:50;;;;;;;9.60;2.75;;;;;;;16.45;44.05;98132.16;10468512;28;20123;-71
2023/05/24 08:40:17;;;;;;;11.25;2.55;;;;;;;16.46;43.68;98135.69;10496763;28;20517;-71
2023/05/24 08:45:38;;;;;;;8.90;2.35;;;;;;;16.62;43.11;98130.88;10456986;28;20440;-71
2023/05/24 08:50:59;;;;;;;12.05;2.63;;;;;;;16.71;42.42;98140.50;10489674;28;20120;-71
2023/05/24 08:56:20;;;;;;;12.85;2.67;;;;;;;17.31;41.54;98139.91;10461584;28;20064;-71
2023/05/24 09:01:41;;;;;;;10.10;2.40;;;;;;;18.28;40.28;98140.06;10474931;28;20072;-71
2023/05/24 09:07:02;;;;;;;8.25;2.30;;;;;;;18.23;38.64;98146.91;10475061;28;20120;-70
2023/05/24 09:12:22;;;;;;;10.23;2.15;;;;;;;18.64;39.37;98143.00;10488996;28;20446;-71
2023/05/24 09:17:57;;;;;;;11.63;2.25;;;;;;;18.77;38.13;98145.00;10478257;28;20056;-71
2023/05/24 09:23:17;;;;;;;8.98;2.10;;;;;;;18.68;37.84;98152.41;10503242;28;20064;-71
2023/05/24 09:28:40;;;;;;;8.52;1.85;;;;;;;19.17;37.21;98155.13;10474052;28;20065;-68
2023/05/24 09:34:01;;;;;;;8.63;2.25;;;;;;;19.94;36.37;98165.19;10488045;28;20132;-71
2023/05/24 09:39:22;;;;;;;9.70;2.17;;;;;;;19.50;35.45;98153.59;10473882;28;20049;-71
2023/05/24 09:44:43;;;;;;;8.93;2.30;;;;;;;19.87;34.73;98155.72;10473476;28;20467;-69
2023/05/24 09:50:05;;;;;;;7.68;2.13;;;;;;;19.02;35.09;98144.63;10487417;28;20435;-69
2023/05/24 09:55:26;;;;;;;10.45;2.25;;;;;;;18.66;36.29;98163.63;10486843;28;20106;-71
2023/05/24 10:00:48;;;;;;;8.93;2.00;;;;;;;18.91;36.11;98159.72;10459033;28;20040;-69
2023/05/24 10:06:10;;;;;;;6.72;2.30;;;;;;;18.80;35.87;98160.66;10486376;28;20545;-69
2023/05/24 10:11:37;;;;;;;7.07;2.00;;;;;;;17.81;36.69;98160.56;10486620;28;20175;-71
2023/05/24 10:16:58;;;;;;;9.95;2.47;;;;;;;17.48;37.59;98160.44;10472065;28;20120;-71
2023/05/24 10:22:21;;;;;;;10.57;2.03;;;;;;;17.56;38.27;98164.34;10472102;28;20406;-71
2023/05/24 10:27:43;;;;;;;8.50;2.25;;;;;;;17.88;38.12;98159.50;10472587;28;20491;-71
2023/05/24 10:33:05;;;;;;;6.82;2.40;;;;;;;18.15;37.59;98163.50;10457827;28;20036;-71
2023/05/24 10:38:25;;;;;;;8.90;2.67;;;;;;;18.26;37.47;98154.09;10471535;28;20064;-71
2023/05/24 10:43:47;;;;;;;7.03;2.60;;;;;;;18.81;36.92;98157.19;10484816;28;20129;-69
2023/05/24 10:49:27;;;;;;;6.47;2.20;;;;;;;19.65;35.62;98152.78;10487631;28;20135;-69
2023/05/24 10:55:08;;;;;;;7.88;2.33;;;;;;;21.37;34.15;98157.41;10484646;28;20044;-69
2023/05/24 11:00:34;;;;;;;6.97;2.13;;;;;;;21.96;33.12;98153.50;10457098;28;20036;-69
2023/05/24 11:05:56;;;;;;;7.30;2.03;;;;;;;21.93;32.49;98154.13;10456970;28;20059;-69
2023/05/24 11:11:19;;;;;;;6.97;2.28;;;;;;;22.49;31.43;98166.41;10456298;28;20044;-69
2023/05/24 11:16:47;;;;;;;7.95;2.08;;;;;;;23.66;29.47;98167.94;10471966;28;20594;-71
2023/05/24 11:22:08;;;;;;;7.25;2.15;;;;;;;24.30;29.39;98174.97;10469830;28;20446;-71
2023/05/24 11:27:30;;;;;;;7.90;2.22;;;;;;;24.37;28.34;98170.88;10498445;28;20557;-71
2023/05/24 11:32:52;;;;;;;7.23;2.20;;;;;;;23.43;27.93;98163.09;10498055;28;20096;-71
2023/05/24 11:38:13;;;;;;;6.53;2.27;;;;;;;24.07;27.99;98160.25;10469242;28;20040;-71
2023/05/24 11:43:34;;;;;;;8.35;2.03;;;;;;;24.57;27.56;98171.25;10468841;28;20044;-71
2023/05/24 11:48:58;;;;;;;4.43;1.40;;;;;;;24.94;26.46;98164.09;10482979;28;20036;-71
2023/05/24 11:54:19;;;;;;;8.27;2.17;;;;;;;24.16;26.36;98161.88;10482752;28;20044;-71
2023/05/24 11:59:40;;;;;;;10.43;2.13;;;;;;;24.63;26.61;98164.97;10455159;28;20608;-71
2023/05/24 12:05:11;;;;;;;8.10;2.17;;;;;;;24.04;25.75;98161.63;10482212;28;20048;-71
2023/05/24 12:10:35;;;;;;;6.60;2.05;;;;;;;22.57;27.12;98178.00;10468594;28;20044;-71
2023/05/24 12:15:57;;;;;;;6.05;1.65;;;;;;;21.60;28.27;98169.47;10467905;28;20045;-69
2023/05/24 12:21:20;;;;;;;7.65;2.00;;;;;;;21.71;28.86;98174.81;10458469;28;20040;-69
2023/05/24 12:26:42;;;;;;;7.75;1.75;;;;;;;22.92;28.61;98164.72;10505180;28;20403;-71
2023/05/24 12:32:03;;;;;;;8.38;1.90;;;;;;;22.85;27.90;98151.72;10462565;28;20502;-71
2023/05/24 12:37:24;;;;;;;7.05;2.05;;;;;;;22.49;27.94;98157.88;10475953;28;20051;-69
2023/05/24 12:42:55;;;;;;;11.07;2.58;;;;;;;21.82;28.72;98144.59;10490029;28;20041;-69
2023/05/24 12:48:17;;;;;;;8.20;1.88;;;;;;;21.77;29.01;98145.13;10476028;28;20097;-69
2023/05/24 12:53:38;;;;;;;7.28;1.75;;;;;;;22.57;28.20;98141.00;10475316;28;20044;-69
2023/05/24 12:58:58;;;;;;;9.32;2.15;;;;;;;22.24;27.79;98144.38;10489100;28;20071;-69
2023/05/24 13:04:20;;;;;;;8.27;1.75;;;;;;;21.39;28.30;98151.78;10475061;28;20049;-69
2023/05/24 13:09:42;;;;;;;9.88;2.22;;;;;;;20.98;29.00;98149.75;10461115;28;20041;-69
2023/05/24 13:15:03;;;;;;;8.10;1.92;;;;;;;20.37;29.93;98152.59;10474364;28;20055;-69
2023/05/24 13:20:24;;;;;;;8.27;1.65;;;;;;;19.61;30.14;98130.00;10474477;28;20045;-69
2023/05/24 13:25:46;;;;;;;8.45;1.95;;;;;;;19.35;30.68;98137.44;10473999;28;20058;-69
2023/05/24 13:31:07;;;;;;;13.13;2.25;;;;;;;19.35;31.43;98128.94;10472935;28;20068;-69
2023/05/24 13:36:28;;;;;;;8.35;1.52;;;;;;;19.63;31.37;98141.38;10487297;28;20126;-69
2023/05/24 13:41:49;;;;;;;8.13;1.90;;;;;;;19.60;31.30;98125.72;10473693;28;20057;-69
2023/05/24 13:47:10;;;;;;;7.25;1.60;;;;;;;19.55;31.47;98114.84;10487364;28;20510;-69
2023/05/24 13:52:36;;;;;;;6.90;1.65;;;;;;;19.51;32.11;98115.41;10501845;28;20075;-69
2023/05/24 13:57:57;;;;;;;7.15;1.38;;;;;;;19.91;32.18;98129.69;10487152;28;20052;-71
2023/05/24 14:03:18;;;;;;;10.38;2.00;;;;;;;19.97;32.18;98130.59;10472583;28;20076;-71
2023/05/24 14:08:38;;;;;;;9.70;2.13;;;;;;;19.75;32.46;98131.91;10486536;28;20068;-71
2023/05/24 14:14:00;;;;;;;6.03;2.00;;;;;;;19.71;32.74;98133.22;10472278;28;20489;-71
2023/05/24 14:19:24;;;;;;;6.43;2.40;;;;;;;20.06;32.70;98131.63;10472618;28;20402;-71
2023/05/24 14:24:45;;;;;;;9.07;2.15;;;;;;;19.73;33.04;98124.78;10485884;28;20037;-71
2023/05/24 14:30:07;;;;;;;9.35;2.17;;;;;;;19.31;33.44;98135.19;10485628;28;20068;-71
2023/05/24 14:35:27;;;;;;;8.82;2.10;;;;;;;18.41;34.72;98138.50;10485401;28;20478;-71
2023/05/24 14:40:48;;;;;;;7.40;2.15;;;;;;;18.44;35.65;98137.22;10484848;28;20071;-71
2023/05/24 14:46:09;;;;;;;7.93;1.55;;;;;;;18.78;35.68;98135.13;10470817;28;20068;-71
2023/05/24 14:51:29;;;;;;;9.30;2.00;;;;;;;19.08;35.12;98149.78;10484971;28;20143;-71
2023/05/24 14:56:50;;;;;;;7.72;2.10;;;;;;;19.01;34.84;98151.66;10484600;28;20134;-71
2023/05/24 15:02:11;;;;;;;6.00;1.85;;;;;;;18.79;34.97;98159.22;10470746;28;20124;-71
2023/05/24 15:07:32;;;;;;;8.43;1.83;;;;;;;18.46;35.34;98154.25;10483990;28;20500;-70
2023/05/24 15:12:52;;;;;;;5.30;1.75;;;;;;;18.34;35.42;98154.47;10470065;28;20478;-71
2023/05/24 15:18:13;;;;;;;8.65;2.13;;;;;;;17.69;35.72;98148.72;10469806;28;20075;-71
2023/05/24 15:23:35;;;;;;;8.23;1.90;;;;;;;17.31;36.80;98142.72;10483706;28;20040;-71
2023/05/24 15:28:57;;;;;;;10.15;2.38;;;;;;;16.97;37.57;98138.22;10497973;28;20129;-71
2023/05/24 15:34:18;;;;;;;10.10;2.25;;;;;;;16.88;38.03;98139.94;10469688;28;20117;-71
2023/05/24 15:39:41;;;;;;;7.70;2.35;;;;;;;17.05;38.06;98135.81;10456364;28;20065;-71
2023/05/24 15:45:02;;;;;;;10.40;2.45;;;;;;;16.98;38.11;98136.88;10469108;28;20041;-71
2023/05/24 15:50:23;;;;;;;9.48;2.17;;;;;;;16.99;38.37;98138.34;10482866;28;20075;-71
2023/05/24 15:56:04;;;;;;;7.63;1.80;;;;;;;17.16;38.88;98140.56;10496933;28;20174;-71
2023/05/24 16:01:25;;;;;;;16.52;3.28;;;;;;;17.28;38.16;98148.91;10468863;28;20139;-71
2023/05/24 16:06:46;;;;;;;9.27;2.00;;;;;;;17.13;38.45;98130.56;10482540;28;20120;-70
2023/05/24 16:12:07;;;;;;;9.48;2.05;;;;;;;16.93;38.49;98138.03;10468679;28;20040;-71
2023/05/24 16:17:28;;;;;;;14.43;2.65;;;;;;;16.53;38.73;98149.47;10468743;28;20072;-71
2023/05/24 16:22:49;;;;;;;5.38;1.70;;;;;;;16.18;39.10;98154.69;10482250;28;20140;-71
2023/05/24 16:28:09;;;;;;;11.30;2.28;;;;;;;16.13;39.55;98153.03;10497305;28;20115;-71
2023/05/24 16:33:30;;;;;;;10.07;2.30;;;;;;;15.96;40.06;98148.63;10482328;28;20107;-70
2023/05/24 16:38:51;;;;;;;12.50;3.38;;;;;;;15.84;39.98;98159.25;10482307;28;20071;-71
2023/05/24 16:44:16;;;;;;;5.72;1.73;;;;;;;15.80;40.50;98151.28;10497296;28;20569;-71
2023/05/24 16:49:39;;;;;;;10.00;2.65;;;;;;;15.73;40.92;98144.63;10482565;28;20471;-71
2023/05/24 16:55:00;;;;;;;10.13;2.38;;;;;;;15.63;41.55;98149.72;10482025;28;20163;-71
2023/05/24 17:00:21;;;;;;;13.85;2.80;;;;;;;15.33;42.30;98153.63;10481612;28;20107;-71
2023/05/24 17:05:43;;;;;;;13.85;2.88;;;;;;;15.26;42.60;98149.03;10468816;28;20072;-71
2023/05/24 17:11:05;;;;;;;14.30;3.20;;;;;;;15.07;42.77;98158.53;10489239;28;20064;-71
2023/05/24 17:16:27;;;;;;;11.88;2.97;;;;;;;14.84;43.39;98162.13;10474957;28;20305;-71
2023/05/24 17:21:48;;;;;;;13.73;3.00;;;;;;;14.74;43.88;98165.09;10475148;28;20067;-71
2023/05/24 17:27:08;;;;;;;8.57;2.40;;;;;;;14.68;44.12;98166.84;10460562;28;20120;-71
2023/05/24 17:32:29;;;;;;;8.32;2.20;;;;;;;14.57;44.80;98174.66;10474084;28;20442;-70
2023/05/24 17:37:49;;;;;;;9.30;2.75;;;;;;;14.39;45.42;98179.19;10487973;28;20195;-71
2023/05/24 17:43:10;;;;;;;10.30;2.60;;;;;;;14.23;45.73;98181.00;10487821;28;20122;-71
2023/05/24 17:48:32;;;;;;;10.98;3.20;;;;;;;14.20;45.93;98193.47;10473608;28;20072;-71
2023/05/24 17:53:53;;;;;;;10.93;2.63;;;;;;;13.98;46.03;98193.56;10487667;28;20124;-71
2023/05/24 17:59:14;;;;;;;10.80;2.53;;;;;;;13.86;46.64;98192.81;10502363;28;20076;-71
2023/05/24 18:04:34;;;;;;;12.82;2.70;;;;;;;13.78;46.73;98197.91;10458884;28;20076;-71
2023/05/24 18:09:55;;;;;;;11.75;2.50;;;;;;;13.74;47.64;98189.25;10487013;28;20111;-71
2023/05/24 18:15:20;;;;;;;11.43;2.45;;;;;;;13.66;47.50;98209.13;10487078;28;20036;-71
2023/05/24 18:20:41;;;;;;;10.48;2.28;;;;;;;13.56;47.82;98218.97;10485875;28;20482;-71
2023/05/24 18:26:06;;;;;;;10.70;2.55;;;;;;;13.41;48.07;98218.09;10500999;28;20120;-71
2023/05/24 18:31:27;;;;;;;13.18;2.85;;;;;;;13.38;48.23;98226.94;10472045;28;20086;-71
2023/05/24 18:36:48;;;;;;;16.35;2.63;;;;;;;13.30;48.75;98224.34;10500859;28;20545;-71
2023/05/24 18:42:11;;;;;;;9.93;2.75;;;;;;;13.12;49.07;98220.34;10471651;28;20116;-71
2023/05/24 18:47:32;;;;;;;12.15;2.85;;;;;;;12.99;49.41;98232.09;10485610;28;20163;-71
2023/05/24 18:52:54;;;;;;;15.43;2.72;;;;;;;12.84;49.66;98250.78;10485000;28;20045;-71
2023/05/24 18:58:14;;;;;;;10.90;2.67;;;;;;;12.74;49.36;98252.91;10485022;28;20055;-71
2023/05/24 19:03:37;;;;;;;17.70;2.95;;;;;;;12.62;50.28;98246.47;10484636;28;20352;-71
2023/05/24 19:09:01;;;;;;;12.35;3.38;;;;;;;12.57;50.26;98258.75;10484258;28;20120;-71
2023/05/24 19:14:22;;;;;;;10.82;3.25;;;;;;;12.45;50.75;98266.31;10470890;28;20454;-71
2023/05/24 19:19:44;;;;;;;12.65;3.70;;;;;;;12.37;51.27;98272.09;10469975;28;20060;-71
2023/05/24 19:25:05;;;;;;;8.85;3.13;;;;;;;12.27;51.27;98274.94;10470246;28;20047;-70
2023/05/24 19:30:26;;;;;;;12.32;3.45;;;;;;;12.20;51.29;98278.63;10468810;28;20120;-71
2023/05/24 19:35:46;;;;;;;10.13;2.70;;;;;;;12.09;51.91;98290.47;10498483;28;20538;-71
2023/05/24 19:41:07;;;;;;;13.52;3.03;;;;;;;11.99;52.08;98284.16;10483415;28;20116;-71
2023/05/24 19:46:28;;;;;;;10.27;2.85;;;;;;;11.93;52.85;98306.09;10469371;28;20112;-71
2023/05/24 19:51:48;;;;;;;10.30;3.40;;;;;;;11.88;52.68;98315.53;10483225;28;20065;-71
2023/05/24 19:57:09;;;;;;;12.13;3.00;;;;;;;11.82;52.94;98318.63;10469198;28;20124;-71
2023/05/24 20:02:30;;;;;;;8.85;2.80;;;;;;;11.71;53.18;98331.13;10482822;28;20055;-71
2023/05/24 20:07:53;;;;;;;13.90;3.08;;;;;;;11.67;53.71;98324.47;10497698;28;20090;-71
2023/05/24 20:13:14;;;;;;;13.43;3.05;;;;;;;11.64;53.83;98334.78;10482967;28;20123;-71
2023/05/24 20:18:35;;;;;;;16.38;3.00;;;;;;;11.72;53.62;98346.56;10482649;28;20459;-71
2023/05/24 20:23:55;;;;;;;9.63;2.88;;;;;;;11.80;53.69;98357.66;10497556;28;20170;-71
2023/05/24 20:29:18;;;;;;;14.93;4.20;;;;;;;11.92;54.03;98352.19;10482900;28;20086;-71
2023/05/24 20:34:39;;;;;;;10.32;3.05;;;;;;;12.08;53.97;98361.75;10468296;28;20074;-71
2023/05/24 20:40:00;;;;;;;12.40;5.60;;;;;;;12.13;54.00;98371.16;10482377;28;20490;-71
2023/05/24 20:45:20;;;;;;;11.88;3.45;;;;;;;12.06;54.71;98372.78;10505032;28;20040;-71
2023/05/24 20:50:41;;;;;;;16.38;3.40;;;;;;;12.02;54.38;98376.03;10475919;28;20040;-71
2023/05/24 20:56:02;;;;;;;9.18;2.97;;;;;;;11.91;54.50;98373.09;10475571;28;20488;-71
2023/05/24 21:01:22;;;;;;;9.75;2.85;;;;;;;11.86;54.99;98376.91;10475712;28;20128;-71
2023/05/24 21:06:43;;;;;;;13.90;3.10;;;;;;;11.78;55.46;98377.06;10488878;28;20193;-71
2023/05/24 21:12:05;;;;;;;8.38;2.88;;;;;;;11.76;55.41;98385.28;10503875;28;20041;-71
2023/05/24 21:17:26;;;;;;;9.77;3.28;;;;;;;11.70;55.12;98382.78;10488679;28;20117;-71
2023/05/24 21:22:46;;;;;;;9.23;3.10;;;;;;;11.62;55.67;98381.44;10488529;28;20087;-71
2023/05/24 21:28:09;;;;;;;12.38;2.95;;;;;;;11.51;55.61;98379.97;10488356;28;20136;-71
2023/05/24 21:33:29;;;;;;;11.90;3.20;;;;;;;11.36;55.97;98375.38;10503029;28;20178;-72
2023/05/24 21:38:50;;;;;;;9.88;2.58;;;;;;;11.26;56.96;98388.59;10460390;28;20162;-71
2023/05/24 21:44:11;;;;;;;14.57;3.92;;;;;;;11.13;57.04;98373.00;10502557;28;20079;-71
2023/05/24 21:49:31;;;;;;;8.05;2.90;;;;;;;11.09;57.03;98367.06;10473568;28;20068;-71
2023/05/24 21:54:52;;;;;;;9.55;2.90;;;;;;;10.96;57.61;98375.13;10486437;28;20079;-71
2023/05/24 22:00:13;;;;;;;9.18;2.47;;;;;;;10.89;57.73;98371.88;10473040;28;20439;-71
2023/05/24 22:05:36;;;;;;;11.27;3.33;;;;;;;10.82;58.18;98372.00;10501424;28;20049;-71
2023/05/24 22:10:57;;;;;;;11.38;3.00;;;;;;;10.78;58.31;98377.28;10472737;28;20132;-71
2023/05/24 22:16:18;;;;;;;12.95;2.80;;;;;;;10.72;58.79;98374.75;10501266;28;20455;-71
2023/05/24 22:21:42;;;;;;;9.95;2.90;;;;;;;10.67;58.70;98383.41;10472621;28;20047;-71
2023/05/24 22:27:03;;;;;;;10.60;2.90;;;;;;;10.57;59.25;98381.28;10485934;28;20116;-71
2023/05/24 22:32:24;;;;;;;11.10;3.70;;;;;;;10.49;59.18;98386.25;10485968;28;20143;-71
2023/05/24 22:37:45;;;;;;;10.77;3.35;;;;;;;10.41;59.62;98396.78;10485427;28;20056;-71
2023/05/24 22:43:07;;;;;;;11.48;3.00;;;;;;;10.35;60.23;98393.53;10471627;28;20049;-71
2023/05/24 22:48:28;;;;;;;14.02;3.42;;;;;;;10.31;60.55;98384.81;10484674;28;20124;-71
2023/05/24 22:53:51;;;;;;;10.30;3.03;;;;;;;10.25;60.94;98387.16;10470829;28;20064;-71
2023/05/24 22:59:12;;;;;;;14.15;4.13;;;;;;;10.19;60.49;98386.63;10471263;28;20123;-71
2023/05/24 23:04:32;;;;;;;11.63;3.20;;;;;;;9.95;61.44;98380.59;10483995;28;20099;-70
2023/05/24 23:09:53;;;;;;;7.85;2.35;;;;;;;9.87;61.44;98384.78;10483995;28;20107;-70
2023/05/24 23:15:15;;;;;;;8.00;2.92;;;;;;;9.91;62.34;98387.91;10483887;28;20119;-70
2023/05/24 23:20:39;;;;;;;9.77;2.95;;;;;;;9.87;61.87;98382.75;10498583;28;20111;-70
2023/05/24 23:25:59;;;;;;;12.45;2.85;;;;;;;9.85;62.18;98387.44;10484005;28;20072;-70
2023/05/24 23:31:21;;;;;;;10.48;2.65;;;;;;;9.85;62.01;98393.75;10483487;28;20107;-70
2023/05/24 23:36:41;;;;;;;14.90;3.10;;;;;;;9.77;62.23;98401.44;10455983;28;20522;-70
2023/05/24 23:42:02;;;;;;;11.15;2.78;;;;;;;9.70;62.23;98385.53;10469356;28;20120;-70
2023/05/24 23:47:24;;;;;;;13.00;2.95;;;;;;;9.68;62.78;98399.31;10469559;28;20047;-70
2023/05/24 23:52:45;;;;;;;9.13;2.83;;;;;;;9.67;62.65;98392.25;10482725;28;20112;-70
2023/05/24 23:58:06;;;;;;;10.60;2.78;;;;;;;9.65;62.93;98394.88;10469074;28;20095;-70
